sensor_id;sensor_type;location;lat;lon;timestamp;P1;durP1;ratioP1;P2;durP2;ratioP2
38465;SDS011;24244;51.950;5.902;2022-12-29T00:01:41;2.47;;;1.23;;
38465;SDS011;24244;51.950;5.902;2022-12-29T00:04:10;2.72;;;1.40;;
38465;SDS011;24244;51.950;5.902;2022-12-29T00:06:43;2.28;;;1.20;;
38465;SDS011;24244;51.950;5.902;2022-12-29T00:09:10;2.72;;;1.40;;
38465;SDS011;24244;51.950;5.902;2022-12-29T00:11:41;4.72;;;1.40;;
38465;SDS011;24244;51.950;5.902;2022-12-29T00:14:08;3.17;;;1.27;;
38465;SDS011;24244;51.950;5.902;2022-12-29T00:16:54;2.50;;;1.23;;
38465;SDS011;24244;51.950;5.902;2022-12-29T00:19:23;2.85;;;1.25;;
38465;SDS011;24244;51.950;5.902;2022-12-29T00:22:10;1.80;;;1.00;;
38465;SDS011;24244;51.950;5.902;2022-12-29T00:24:57;3.00;;;1.33;;
38465;SDS011;24244;51.950;5.902;2022-12-29T00:27:50;3.00;;;1.35;;
38465;SDS011;24244;51.950;5.902;2022-12-29T00:30:37;3.28;;;1.50;;
38465;SDS011;24244;51.950;5.902;2022-12-29T00:33:25;3.22;;;1.40;;
38465;SDS011;24244;51.950;5.902;2022-12-29T00:36:17;3.78;;;1.42;;
38465;SDS011;24244;51.950;5.902;2022-12-29T00:38:46;3.00;;;1.15;;
38465;SDS011;24244;51.950;5.902;2022-12-29T00:41:35;2.53;;;1.30;;
38465;SDS011;24244;51.950;5.902;2022-12-29T00:44:21;2.40;;;1.25;;
38465;SDS011;24244;51.950;5.902;2022-12-29T00:46:49;2.60;;;1.30;;
38465;SDS011;24244;51.950;5.902;2022-12-29T00:49:17;3.45;;;1.60;;
38465;SDS011;24244;51.950;5.902;2022-12-29T00:52:08;2.05;;;0.90;;
38465;SDS011;24244;51.950;5.902;2022-12-29T00:54:37;2.95;;;1.27;;
38465;SDS011;24244;51.950;5.902;2022-12-29T00:57:06;2.58;;;1.00;;
38465;SDS011;24244;51.950;5.902;2022-12-29T00:59:34;2.38;;;1.00;;
38465;SDS011;24244;51.950;5.902;2022-12-29T01:02:01;2.15;;;1.02;;
38465;SDS011;24244;51.950;5.902;2022-12-29T01:04:29;2.33;;;1.00;;
38465;SDS011;24244;51.950;5.902;2022-12-29T01:06:55;2.65;;;0.82;;
38465;SDS011;24244;51.950;5.902;2022-12-29T01:09:24;2.67;;;0.88;;
38465;SDS011;24244;51.950;5.902;2022-12-29T01:12:10;1.80;;;0.75;;
38465;SDS011;24244;51.950;5.902;2022-12-29T01:14:37;2.65;;;1.00;;
38465;SDS011;24244;51.950;5.902;2022-12-29T01:17:16;2.65;;;0.80;;
38465;SDS011;24244;51.950;5.902;2022-12-29T01:19:43;2.58;;;0.70;;
38465;SDS011;24244;51.950;5.902;2022-12-29T01:22:10;1.55;;;0.70;;
38465;SDS011;24244;51.950;5.902;2022-12-29T01:24:38;1.40;;;0.30;;
38465;SDS011;24244;51.950;5.902;2022-12-29T01:27:05;1.35;;;0.35;;
38465;SDS011;24244;51.950;5.902;2022-12-29T01:29:38;1.20;;;0.40;;
38465;SDS011;24244;51.950;5.902;2022-12-29T01:32:04;4.35;;;0.57;;
38465;SDS011;24244;51.950;5.902;2022-12-29T01:34:31;0.88;;;0.30;;
38465;SDS011;24244;51.950;5.902;2022-12-29T01:36:59;0.82;;;0.20;;
38465;SDS011;24244;51.950;5.902;2022-12-29T01:39:26;1.20;;;0.20;;
38465;SDS011;24244;51.950;5.902;2022-12-29T01:41:54;1.20;;;0.40;;
38465;SDS011;24244;51.950;5.902;2022-12-29T01:47:22;0.95;;;0.30;;
38465;SDS011;24244;51.950;5.902;2022-12-29T01:49:56;1.33;;;0.60;;
38465;SDS011;24244;51.950;5.902;2022-12-29T01:52:27;2.45;;;0.70;;
38465;SDS011;24244;51.950;5.902;2022-12-29T01:55:00;1.77;;;0.60;;
38465;SDS011;24244;51.950;5.902;2022-12-29T01:57:32;1.73;;;0.60;;
38465;SDS011;24244;51.950;5.902;2022-12-29T02:00:04;1.75;;;0.70;;
38465;SDS011;24244;51.950;5.902;2022-12-29T02:02:33;2.72;;;0.60;;
38465;SDS011;24244;51.950;5.902;2022-12-29T02:05:01;1.83;;;0.75;;
38465;SDS011;24244;51.950;5.902;2022-12-29T02:07:34;2.40;;;0.88;;
38465;SDS011;24244;51.950;5.902;2022-12-29T02:10:01;1.70;;;0.82;;
38465;SDS011;24244;51.950;5.902;2022-12-29T02:12:28;1.75;;;0.75;;
38465;SDS011;24244;51.950;5.902;2022-12-29T02:14:57;1.88;;;0.85;;
38465;SDS011;24244;51.950;5.902;2022-12-29T02:17:29;2.33;;;0.70;;
38465;SDS011;24244;51.950;5.902;2022-12-29T02:20:24;1.98;;;0.90;;
38465;SDS011;24244;51.950;5.902;2022-12-29T02:23:16;1.95;;;0.77;;
38465;SDS011;24244;51.950;5.902;2022-12-29T02:26:02;1.48;;;0.47;;
38465;SDS011;24244;51.950;5.902;2022-12-29T02:28:46;3.38;;;1.00;;
38465;SDS011;24244;51.950;5.902;2022-12-29T02:31:28;1.13;;;0.50;;
38465;SDS011;24244;51.950;5.902;2022-12-29T02:34:04;1.20;;;0.40;;
38465;SDS011;24244;51.950;5.902;2022-12-29T02:36:40;1.02;;;0.43;;
38465;SDS011;24244;51.950;5.902;2022-12-29T02:39:15;1.67;;;0.43;;
38465;SDS011;24244;51.950;5.902;2022-12-29T02:41:52;0.90;;;0.20;;
38465;SDS011;24244;51.950;5.902;2022-12-29T02:44:31;2.35;;;0.40;;
38465;SDS011;24244;51.950;5.902;2022-12-29T02:47:11;1.75;;;0.63;;
38465;SDS011;24244;51.950;5.902;2022-12-29T02:49:46;1.25;;;0.47;;
38465;SDS011;24244;51.950;5.902;2022-12-29T02:52:20;2.42;;;0.43;;
38465;SDS011;24244;51.950;5.902;2022-12-29T02:54:58;0.93;;;0.32;;
38465;SDS011;24244;51.950;5.902;2022-12-29T02:57:30;1.45;;;0.20;;
38465;SDS011;24244;51.950;5.902;2022-12-29T03:00:01;0.95;;;0.22;;
38465;SDS011;24244;51.950;5.902;2022-12-29T03:02:37;1.17;;;0.30;;
38465;SDS011;24244;51.950;5.902;2022-12-29T03:05:18;3.08;;;0.30;;
38465;SDS011;24244;51.950;5.902;2022-12-29T03:08:02;2.33;;;0.75;;
38465;SDS011;24244;51.950;5.902;2022-12-29T03:10:35;1.52;;;0.32;;
38465;SDS011;24244;51.950;5.902;2022-12-29T03:13:09;2.53;;;0.30;;
38465;SDS011;24244;51.950;5.902;2022-12-29T03:16:01;1.50;;;0.30;;
38465;SDS011;24244;51.950;5.902;2022-12-29T03:18:40;1.90;;;0.40;;
38465;SDS011;24244;51.950;5.902;2022-12-29T03:21:14;1.75;;;0.30;;
38465;SDS011;24244;51.950;5.902;2022-12-29T03:23:44;2.05;;;0.40;;
38465;SDS011;24244;51.950;5.902;2022-12-29T03:26:15;2.33;;;0.32;;
38465;SDS011;24244;51.950;5.902;2022-12-29T03:28:46;0.80;;;0.10;;
38465;SDS011;24244;51.950;5.902;2022-12-29T03:31:16;1.40;;;0.22;;
38465;SDS011;24244;51.950;5.902;2022-12-29T03:33:47;1.70;;;0.28;;
38465;SDS011;24244;51.950;5.902;2022-12-29T03:36:16;1.20;;;0.20;;
38465;SDS011;24244;51.950;5.902;2022-12-29T03:38:49;1.27;;;0.30;;
38465;SDS011;24244;51.950;5.902;2022-12-29T03:41:23;1.20;;;0.20;;
38465;SDS011;24244;51.950;5.902;2022-12-29T03:43:54;1.80;;;0.30;;
38465;SDS011;24244;51.950;5.902;2022-12-29T03:46:21;2.30;;;0.20;;
38465;SDS011;24244;51.950;5.902;2022-12-29T03:48:49;3.47;;;0.20;;
38465;SDS011;24244;51.950;5.902;2022-12-29T03:51:16;0.98;;;0.20;;
38465;SDS011;24244;51.950;5.902;2022-12-29T03:53:44;2.40;;;0.30;;
38465;SDS011;24244;51.950;5.902;2022-12-29T03:56:10;1.20;;;0.30;;
38465;SDS011;24244;51.950;5.902;2022-12-29T03:58:37;1.38;;;0.20;;
38465;SDS011;24244;51.950;5.902;2022-12-29T04:01:06;1.27;;;0.30;;
38465;SDS011;24244;51.950;5.902;2022-12-29T04:03:32;1.30;;;0.30;;
38465;SDS011;24244;51.950;5.902;2022-12-29T04:06:01;2.40;;;0.30;;
38465;SDS011;24244;51.950;5.902;2022-12-29T04:08:29;1.45;;;0.20;;
38465;SDS011;24244;51.950;5.902;2022-12-29T04:10:55;2.30;;;0.13;;
38465;SDS011;24244;51.950;5.902;2022-12-29T04:13:22;2.28;;;0.20;;
38465;SDS011;24244;51.950;5.902;2022-12-29T04:15:50;1.17;;;0.30;;
38465;SDS011;24244;51.950;5.902;2022-12-29T04:18:17;1.30;;;0.17;;
38465;SDS011;24244;51.950;5.902;2022-12-29T04:20:44;1.33;;;0.20;;
38465;SDS011;24244;51.950;5.902;2022-12-29T04:23:27;1.00;;;0.20;;
38465;SDS011;24244;51.950;5.902;2022-12-29T04:25:55;1.48;;;0.30;;
38465;SDS011;24244;51.950;5.902;2022-12-29T04:28:22;1.17;;;0.40;;
38465;SDS011;24244;51.950;5.902;2022-12-29T04:30:48;1.38;;;0.20;;
38465;SDS011;24244;51.950;5.902;2022-12-29T04:33:16;1.58;;;0.10;;
38465;SDS011;24244;51.950;5.902;2022-12-29T04:35:44;2.10;;;0.30;;
38465;SDS011;24244;51.950;5.902;2022-12-29T04:38:11;1.10;;;0.22;;
38465;SDS011;24244;51.950;5.902;2022-12-29T04:40:42;1.08;;;0.20;;
38465;SDS011;24244;51.950;5.902;2022-12-29T04:43:09;1.33;;;0.30;;
38465;SDS011;24244;51.950;5.902;2022-12-29T04:45:36;1.92;;;0.20;;
38465;SDS011;24244;51.950;5.902;2022-12-29T04:48:05;1.63;;;0.20;;
38465;SDS011;24244;51.950;5.902;2022-12-29T04:50:32;1.00;;;0.30;;
38465;SDS011;24244;51.950;5.902;2022-12-29T04:52:58;1.23;;;0.35;;
38465;SDS011;24244;51.950;5.902;2022-12-29T04:55:25;0.85;;;0.13;;
38465;SDS011;24244;51.950;5.902;2022-12-29T04:57:53;2.15;;;0.40;;
38465;SDS011;24244;51.950;5.902;2022-12-29T05:00:20;1.13;;;0.20;;
38465;SDS011;24244;51.950;5.902;2022-12-29T05:02:47;1.50;;;0.25;;
38465;SDS011;24244;51.950;5.902;2022-12-29T05:05:14;2.50;;;0.55;;
38465;SDS011;24244;51.950;5.902;2022-12-29T05:07:41;1.55;;;0.40;;
38465;SDS011;24244;51.950;5.902;2022-12-29T05:10:08;2.10;;;0.30;;
38465;SDS011;24244;51.950;5.902;2022-12-29T05:12:35;1.85;;;0.50;;
38465;SDS011;24244;51.950;5.902;2022-12-29T05:15:06;2.00;;;0.40;;
38465;SDS011;24244;51.950;5.902;2022-12-29T05:17:34;2.08;;;0.30;;
38465;SDS011;24244;51.950;5.902;2022-12-29T05:20:01;1.33;;;0.52;;
38465;SDS011;24244;51.950;5.902;2022-12-29T05:22:28;0.93;;;0.32;;
38465;SDS011;24244;51.950;5.902;2022-12-29T05:24:54;1.58;;;0.30;;
38465;SDS011;24244;51.950;5.902;2022-12-29T05:27:21;0.90;;;0.40;;
38465;SDS011;24244;51.950;5.902;2022-12-29T05:29:48;1.67;;;0.40;;
38465;SDS011;24244;51.950;5.902;2022-12-29T05:32:16;1.38;;;0.20;;
38465;SDS011;24244;51.950;5.902;2022-12-29T05:34:44;2.05;;;0.30;;
38465;SDS011;24244;51.950;5.902;2022-12-29T05:37:11;1.25;;;0.40;;
38465;SDS011;24244;51.950;5.902;2022-12-29T05:39:39;1.60;;;0.28;;
38465;SDS011;24244;51.950;5.902;2022-12-29T05:42:06;2.50;;;0.47;;
38465;SDS011;24244;51.950;5.902;2022-12-29T05:44:33;1.63;;;0.40;;
38465;SDS011;24244;51.950;5.902;2022-12-29T05:46:59;1.35;;;0.20;;
38465;SDS011;24244;51.950;5.902;2022-12-29T05:49:28;1.58;;;0.30;;
38465;SDS011;24244;51.950;5.902;2022-12-29T05:51:55;1.38;;;0.28;;
38465;SDS011;24244;51.950;5.902;2022-12-29T05:54:22;3.22;;;0.40;;
38465;SDS011;24244;51.950;5.902;2022-12-29T05:56:49;1.38;;;0.30;;
38465;SDS011;24244;51.950;5.902;2022-12-29T05:59:17;2.67;;;0.43;;
38465;SDS011;24244;51.950;5.902;2022-12-29T06:01:44;2.90;;;0.68;;
38465;SDS011;24244;51.950;5.902;2022-12-29T06:04:11;3.08;;;0.50;;
38465;SDS011;24244;51.950;5.902;2022-12-29T06:06:39;3.83;;;0.63;;
38465;SDS011;24244;51.950;5.902;2022-12-29T06:09:08;2.42;;;0.47;;
38465;SDS011;24244;51.950;5.902;2022-12-29T06:11:36;1.15;;;0.30;;
38465;SDS011;24244;51.950;5.902;2022-12-29T06:14:03;1.58;;;0.40;;
38465;SDS011;24244;51.950;5.902;2022-12-29T06:16:30;2.30;;;0.40;;
38465;SDS011;24244;51.950;5.902;2022-12-29T06:18:57;2.38;;;0.70;;
38465;SDS011;24244;51.950;5.902;2022-12-29T06:21:24;1.80;;;0.40;;
38465;SDS011;24244;51.950;5.902;2022-12-29T06:23:53;3.58;;;0.57;;
38465;SDS011;24244;51.950;5.902;2022-12-29T06:26:20;1.13;;;0.40;;
38465;SDS011;24244;51.950;5.902;2022-12-29T06:28:47;1.40;;;0.28;;
38465;SDS011;24244;51.950;5.902;2022-12-29T06:31:15;3.15;;;0.40;;
38465;SDS011;24244;51.950;5.902;2022-12-29T06:33:43;2.25;;;0.40;;
38465;SDS011;24244;51.950;5.902;2022-12-29T06:36:15;2.60;;;0.32;;
38465;SDS011;24244;51.950;5.902;2022-12-29T06:38:42;4.47;;;0.30;;
38465;SDS011;24244;51.950;5.902;2022-12-29T06:41:10;3.17;;;0.50;;
38465;SDS011;24244;51.950;5.902;2022-12-29T06:43:37;3.60;;;0.88;;
38465;SDS011;24244;51.950;5.902;2022-12-29T06:46:04;2.33;;;0.50;;
38465;SDS011;24244;51.950;5.902;2022-12-29T06:48:31;2.70;;;0.40;;
38465;SDS011;24244;51.950;5.902;2022-12-29T06:50:58;2.53;;;0.38;;
38465;SDS011;24244;51.950;5.902;2022-12-29T06:53:25;4.43;;;0.40;;
38465;SDS011;24244;51.950;5.902;2022-12-29T06:55:52;2.10;;;0.40;;
38465;SDS011;24244;51.950;5.902;2022-12-29T06:58:20;1.40;;;0.22;;
38465;SDS011;24244;51.950;5.902;2022-12-29T07:00:47;3.20;;;0.30;;
38465;SDS011;24244;51.950;5.902;2022-12-29T07:03:14;4.82;;;0.30;;
38465;SDS011;24244;51.950;5.902;2022-12-29T07:05:42;3.22;;;0.50;;
38465;SDS011;24244;51.950;5.902;2022-12-29T07:08:09;2.20;;;0.52;;
38465;SDS011;24244;51.950;5.902;2022-12-29T07:10:36;1.83;;;0.73;;
38465;SDS011;24244;51.950;5.902;2022-12-29T07:13:04;5.00;;;0.20;;
38465;SDS011;24244;51.950;5.902;2022-12-29T07:15:35;1.40;;;0.30;;
38465;SDS011;24244;51.950;5.902;2022-12-29T07:18:02;2.85;;;0.22;;
38465;SDS011;24244;51.950;5.902;2022-12-29T07:20:30;3.65;;;0.65;;
38465;SDS011;24244;51.950;5.902;2022-12-29T07:22:57;2.08;;;0.22;;
38465;SDS011;24244;51.950;5.902;2022-12-29T07:25:24;3.78;;;0.30;;
38465;SDS011;24244;51.950;5.902;2022-12-29T07:27:51;1.73;;;0.30;;
38465;SDS011;24244;51.950;5.902;2022-12-29T07:30:17;2.63;;;0.50;;
38465;SDS011;24244;51.950;5.902;2022-12-29T07:32:45;1.73;;;0.32;;
38465;SDS011;24244;51.950;5.902;2022-12-29T07:35:13;3.72;;;0.50;;
38465;SDS011;24244;51.950;5.902;2022-12-29T07:37:40;0.98;;;0.30;;
38465;SDS011;24244;51.950;5.902;2022-12-29T07:40:08;1.83;;;0.32;;
38465;SDS011;24244;51.950;5.902;2022-12-29T07:42:35;2.45;;;0.50;;
38465;SDS011;24244;51.950;5.902;2022-12-29T07:45:02;1.55;;;0.22;;
38465;SDS011;24244;51.950;5.902;2022-12-29T07:47:30;4.20;;;0.35;;
38465;SDS011;24244;51.950;5.902;2022-12-29T07:49:58;2.70;;;0.40;;
38465;SDS011;24244;51.950;5.902;2022-12-29T07:52:30;2.65;;;0.47;;
38465;SDS011;24244;51.950;5.902;2022-12-29T07:54:57;3.40;;;0.52;;
38465;SDS011;24244;51.950;5.902;2022-12-29T07:57:24;2.78;;;0.50;;
38465;SDS011;24244;51.950;5.902;2022-12-29T07:59:57;2.38;;;0.38;;
38465;SDS011;24244;51.950;5.902;2022-12-29T08:02:24;2.83;;;0.70;;
38465;SDS011;24244;51.950;5.902;2022-12-29T08:04:53;2.58;;;0.52;;
38465;SDS011;24244;51.950;5.902;2022-12-29T08:07:21;3.22;;;1.02;;
38465;SDS011;24244;51.950;5.902;2022-12-29T08:09:48;2.28;;;0.57;;
38465;SDS011;24244;51.950;5.902;2022-12-29T08:12:14;3.78;;;0.40;;
38465;SDS011;24244;51.950;5.902;2022-12-29T08:14:41;3.88;;;0.40;;
38465;SDS011;24244;51.950;5.902;2022-12-29T08:17:08;2.75;;;0.43;;
38465;SDS011;24244;51.950;5.902;2022-12-29T08:19:36;1.63;;;0.30;;
38465;SDS011;24244;51.950;5.902;2022-12-29T08:22:03;1.98;;;0.43;;
38465;SDS011;24244;51.950;5.902;2022-12-29T08:24:31;2.25;;;0.50;;
38465;SDS011;24244;51.950;5.902;2022-12-29T08:26:58;3.70;;;0.32;;
38465;SDS011;24244;51.950;5.902;2022-12-29T08:29:41;2.28;;;0.30;;
38465;SDS011;24244;51.950;5.902;2022-12-29T08:32:08;2.72;;;0.38;;
38465;SDS011;24244;51.950;5.902;2022-12-29T08:34:39;3.33;;;1.13;;
38465;SDS011;24244;51.950;5.902;2022-12-29T08:37:05;3.33;;;0.40;;
38465;SDS011;24244;51.950;5.902;2022-12-29T08:39:36;4.18;;;0.40;;
38465;SDS011;24244;51.950;5.902;2022-12-29T08:42:03;2.72;;;0.40;;
38465;SDS011;24244;51.950;5.902;2022-12-29T08:44:29;7.20;;;0.75;;
38465;SDS011;24244;51.950;5.902;2022-12-29T08:46:56;3.00;;;0.88;;
38465;SDS011;24244;51.950;5.902;2022-12-29T08:49:23;3.20;;;0.68;;
38465;SDS011;24244;51.950;5.902;2022-12-29T08:51:50;5.85;;;0.65;;
38465;SDS011;24244;51.950;5.902;2022-12-29T08:54:17;4.80;;;0.57;;
38465;SDS011;24244;51.950;5.902;2022-12-29T08:56:45;4.80;;;0.52;;
38465;SDS011;24244;51.950;5.902;2022-12-29T08:59:11;4.35;;;0.65;;
38465;SDS011;24244;51.950;5.902;2022-12-29T09:01:38;2.10;;;0.50;;
38465;SDS011;24244;51.950;5.902;2022-12-29T09:04:08;2.75;;;0.68;;
38465;SDS011;24244;51.950;5.902;2022-12-29T09:06:41;3.70;;;0.40;;
38465;SDS011;24244;51.950;5.902;2022-12-29T09:09:09;4.80;;;1.17;;
38465;SDS011;24244;51.950;5.902;2022-12-29T09:11:36;2.85;;;0.40;;
38465;SDS011;24244;51.950;5.902;2022-12-29T09:14:04;2.20;;;0.57;;
38465;SDS011;24244;51.950;5.902;2022-12-29T09:16:32;5.20;;;0.60;;
38465;SDS011;24244;51.950;5.902;2022-12-29T09:19:00;2.97;;;0.52;;
38465;SDS011;24244;51.950;5.902;2022-12-29T09:21:27;3.17;;;0.70;;
38465;SDS011;24244;51.950;5.902;2022-12-29T09:23:54;3.97;;;0.40;;
38465;SDS011;24244;51.950;5.902;2022-12-29T09:26:21;4.05;;;0.43;;
38465;SDS011;24244;51.950;5.902;2022-12-29T09:28:49;2.67;;;1.02;;
38465;SDS011;24244;51.950;5.902;2022-12-29T09:31:19;4.03;;;0.40;;
38465;SDS011;24244;51.950;5.902;2022-12-29T09:33:46;2.78;;;0.63;;
38465;SDS011;24244;51.950;5.902;2022-12-29T09:36:16;2.58;;;0.45;;
38465;SDS011;24244;51.950;5.902;2022-12-29T09:38:42;1.20;;;0.20;;
38465;SDS011;24244;51.950;5.902;2022-12-29T09:41:12;5.80;;;0.50;;
38465;SDS011;24244;51.950;5.902;2022-12-29T09:46:25;4.43;;;1.17;;
38465;SDS011;24244;51.950;5.902;2022-12-29T09:49:06;2.95;;;0.60;;
38465;SDS011;24244;51.950;5.902;2022-12-29T09:51:41;8.35;;;0.68;;
38465;SDS011;24244;51.950;5.902;2022-12-29T09:54:19;3.22;;;0.43;;
38465;SDS011;24244;51.950;5.902;2022-12-29T09:56:54;5.47;;;0.60;;
38465;SDS011;24244;51.950;5.902;2022-12-29T09:59:23;3.13;;;0.30;;
38465;SDS011;24244;51.950;5.902;2022-12-29T10:01:55;5.03;;;1.02;;
38465;SDS011;24244;51.950;5.902;2022-12-29T10:04:30;1.45;;;0.35;;
38465;SDS011;24244;51.950;5.902;2022-12-29T10:07:00;4.00;;;0.52;;
38465;SDS011;24244;51.950;5.902;2022-12-29T10:09:53;4.03;;;0.47;;
38465;SDS011;24244;51.950;5.902;2022-12-29T10:12:43;2.80;;;0.63;;
38465;SDS011;24244;51.950;5.902;2022-12-29T10:15:24;7.40;;;0.98;;
38465;SDS011;24244;51.950;5.902;2022-12-29T10:18:08;2.67;;;0.50;;
38465;SDS011;24244;51.950;5.902;2022-12-29T10:20:48;4.93;;;0.70;;
38465;SDS011;24244;51.950;5.902;2022-12-29T10:23:25;1.90;;;0.50;;
38465;SDS011;24244;51.950;5.902;2022-12-29T10:25:56;3.88;;;0.60;;
38465;SDS011;24244;51.950;5.902;2022-12-29T10:28:30;4.10;;;0.60;;
38465;SDS011;24244;51.950;5.902;2022-12-29T10:31:03;5.25;;;0.70;;
38465;SDS011;24244;51.950;5.902;2022-12-29T10:33:36;2.08;;;0.38;;
38465;SDS011;24244;51.950;5.902;2022-12-29T10:36:10;3.08;;;0.68;;
38465;SDS011;24244;51.950;5.902;2022-12-29T10:38:43;2.88;;;0.55;;
38465;SDS011;24244;51.950;5.902;2022-12-29T10:41:22;2.20;;;0.32;;
38465;SDS011;24244;51.950;5.902;2022-12-29T10:43:53;4.80;;;0.40;;
38465;SDS011;24244;51.950;5.902;2022-12-29T10:46:27;4.43;;;0.80;;
38465;SDS011;24244;51.950;5.902;2022-12-29T10:49:00;3.42;;;0.50;;
38465;SDS011;24244;51.950;5.902;2022-12-29T10:51:32;3.30;;;0.60;;
38465;SDS011;24244;51.950;5.902;2022-12-29T10:54:03;1.98;;;0.63;;
38465;SDS011;24244;51.950;5.902;2022-12-29T10:56:38;3.80;;;0.80;;
38465;SDS011;24244;51.950;5.902;2022-12-29T10:59:12;4.22;;;0.65;;
38465;SDS011;24244;51.950;5.902;2022-12-29T11:01:46;3.03;;;0.73;;
38465;SDS011;24244;51.950;5.902;2022-12-29T11:04:32;4.53;;;0.70;;
38465;SDS011;24244;51.950;5.902;2022-12-29T11:07:11;3.85;;;1.05;;
38465;SDS011;24244;51.950;5.902;2022-12-29T11:09:44;4.82;;;1.13;;
38465;SDS011;24244;51.950;5.902;2022-12-29T11:12:21;3.90;;;0.60;;
38465;SDS011;24244;51.950;5.902;2022-12-29T11:15:00;2.92;;;0.82;;
38465;SDS011;24244;51.950;5.902;2022-12-29T11:17:29;3.17;;;0.68;;
38465;SDS011;24244;51.950;5.902;2022-12-29T11:20:24;2.90;;;0.70;;
38465;SDS011;24244;51.950;5.902;2022-12-29T11:22:54;3.60;;;0.93;;
38465;SDS011;24244;51.950;5.902;2022-12-29T11:25:22;5.32;;;1.23;;
38465;SDS011;24244;51.950;5.902;2022-12-29T11:27:54;4.85;;;0.90;;
38465;SDS011;24244;51.950;5.902;2022-12-29T11:30:22;7.00;;;1.30;;
38465;SDS011;24244;51.950;5.902;2022-12-29T11:32:51;6.90;;;1.33;;
38465;SDS011;24244;51.950;5.902;2022-12-29T11:35:29;4.57;;;1.00;;
38465;SDS011;24244;51.950;5.902;2022-12-29T11:37:59;7.13;;;2.13;;
38465;SDS011;24244;51.950;5.902;2022-12-29T11:40:28;4.85;;;1.20;;
38465;SDS011;24244;51.950;5.902;2022-12-29T11:42:57;4.32;;;1.15;;
38465;SDS011;24244;51.950;5.902;2022-12-29T11:45:29;4.80;;;1.45;;
38465;SDS011;24244;51.950;5.902;2022-12-29T11:48:00;5.85;;;1.20;;
38465;SDS011;24244;51.950;5.902;2022-12-29T11:50:37;5.22;;;1.00;;
38465;SDS011;24244;51.950;5.902;2022-12-29T11:53:13;7.28;;;1.70;;
38465;SDS011;24244;51.950;5.902;2022-12-29T11:55:52;4.88;;;1.05;;
38465;SDS011;24244;51.950;5.902;2022-12-29T11:58:27;5.30;;;1.10;;
38465;SDS011;24244;51.950;5.902;2022-12-29T12:00:55;4.82;;;1.30;;
38465;SDS011;24244;51.950;5.902;2022-12-29T12:03:24;3.35;;;1.23;;
38465;SDS011;24244;51.950;5.902;2022-12-29T12:05:55;4.32;;;1.45;;
38465;SDS011;24244;51.950;5.902;2022-12-29T12:08:31;8.20;;;1.48;;
38465;SDS011;24244;51.950;5.902;2022-12-29T12:11:04;7.65;;;1.73;;
38465;SDS011;24244;51.950;5.902;2022-12-29T12:13:37;4.85;;;1.77;;
38465;SDS011;24244;51.950;5.902;2022-12-29T12:16:11;7.32;;;1.40;;
38465;SDS011;24244;51.950;5.902;2022-12-29T12:18:45;7.68;;;1.92;;
38465;SDS011;24244;51.950;5.902;2022-12-29T12:21:27;5.75;;;1.33;;
38465;SDS011;24244;51.950;5.902;2022-12-29T12:24:15;7.32;;;1.90;;
38465;SDS011;24244;51.950;5.902;2022-12-29T12:26:55;5.13;;;1.85;;
38465;SDS011;24244;51.950;5.902;2022-12-29T12:29:31;6.82;;;1.38;;
38465;SDS011;24244;51.950;5.902;2022-12-29T12:32:06;5.13;;;1.42;;
38465;SDS011;24244;51.950;5.902;2022-12-29T12:34:41;6.47;;;1.50;;
38465;SDS011;24244;51.950;5.902;2022-12-29T12:37:16;10.80;;;2.10;;
38465;SDS011;24244;51.950;5.902;2022-12-29T12:40:08;5.88;;;1.27;;
38465;SDS011;24244;51.950;5.902;2022-12-29T12:42:47;4.75;;;1.55;;
38465;SDS011;24244;51.950;5.902;2022-12-29T12:45:38;6.45;;;1.10;;
38465;SDS011;24244;51.950;5.902;2022-12-29T12:48:18;4.05;;;1.10;;
38465;SDS011;24244;51.950;5.902;2022-12-29T12:51:02;5.25;;;1.20;;
38465;SDS011;24244;51.950;5.902;2022-12-29T12:53:49;8.68;;;1.40;;
38465;SDS011;24244;51.950;5.902;2022-12-29T12:56:41;5.22;;;1.17;;
38465;SDS011;24244;51.950;5.902;2022-12-29T12:59:16;3.92;;;1.20;;
38465;SDS011;24244;51.950;5.902;2022-12-29T13:07:54;5.32;;;1.30;;
38465;SDS011;24244;51.950;5.902;2022-12-29T13:10:33;4.05;;;1.13;;
38465;SDS011;24244;51.950;5.902;2022-12-29T13:13:28;7.32;;;1.60;;
38465;SDS011;24244;51.950;5.902;2022-12-29T13:16:08;4.72;;;1.30;;
38465;SDS011;24244;51.950;5.902;2022-12-29T13:18:47;3.60;;;1.15;;
38465;SDS011;24244;51.950;5.902;2022-12-29T13:21:25;5.82;;;1.02;;
38465;SDS011;24244;51.950;5.902;2022-12-29T13:24:00;3.13;;;0.98;;
38465;SDS011;24244;51.950;5.902;2022-12-29T13:26:39;2.80;;;1.10;;
38465;SDS011;24244;51.950;5.902;2022-12-29T13:29:12;7.03;;;1.35;;
38465;SDS011;24244;51.950;5.902;2022-12-29T13:31:44;7.65;;;1.10;;
38465;SDS011;24244;51.950;5.902;2022-12-29T13:34:20;4.60;;;1.35;;
38465;SDS011;24244;51.950;5.902;2022-12-29T13:37:00;5.10;;;1.38;;
38465;SDS011;24244;51.950;5.902;2022-12-29T13:39:31;6.57;;;1.30;;
38465;SDS011;24244;51.950;5.902;2022-12-29T13:42:06;5.85;;;1.48;;
38465;SDS011;24244;51.950;5.902;2022-12-29T13:44:35;4.13;;;1.00;;
38465;SDS011;24244;51.950;5.902;2022-12-29T13:47:13;2.75;;;0.75;;
38465;SDS011;24244;51.950;5.902;2022-12-29T13:49:48;4.82;;;1.40;;
38465;SDS011;24244;51.950;5.902;2022-12-29T13:52:21;7.90;;;1.15;;
38465;SDS011;24244;51.950;5.902;2022-12-29T13:54:57;4.95;;;1.20;;
38465;SDS011;24244;51.950;5.902;2022-12-29T13:57:39;6.97;;;1.50;;
38465;SDS011;24244;51.950;5.902;2022-12-29T14:00:13;3.90;;;1.10;;
38465;SDS011;24244;51.950;5.902;2022-12-29T14:02:46;5.07;;;1.30;;
38465;SDS011;24244;51.950;5.902;2022-12-29T14:05:30;5.90;;;1.63;;
38465;SDS011;24244;51.950;5.902;2022-12-29T14:08:05;4.65;;;1.25;;
38465;SDS011;24244;51.950;5.902;2022-12-29T14:10:45;7.28;;;1.70;;
38465;SDS011;24244;51.950;5.902;2022-12-29T14:13:18;5.20;;;1.70;;
38465;SDS011;24244;51.950;5.902;2022-12-29T14:15:50;5.95;;;1.67;;
38465;SDS011;24244;51.950;5.902;2022-12-29T14:18:19;4.13;;;1.42;;
38465;SDS011;24244;51.950;5.902;2022-12-29T14:20:56;6.15;;;1.38;;
38465;SDS011;24244;51.950;5.902;2022-12-29T14:26:13;4.72;;;0.80;;
38465;SDS011;24244;51.950;5.902;2022-12-29T14:28:45;6.90;;;2.38;;
38465;SDS011;24244;51.950;5.902;2022-12-29T14:31:33;2.80;;;0.50;;
38465;SDS011;24244;51.950;5.902;2022-12-29T14:34:25;3.40;;;0.75;;
38465;SDS011;24244;51.950;5.902;2022-12-29T14:36:55;1.88;;;0.35;;
38465;SDS011;24244;51.950;5.902;2022-12-29T14:39:29;3.20;;;0.70;;
38465;SDS011;24244;51.950;5.902;2022-12-29T14:41:59;1.63;;;0.50;;
38465;SDS011;24244;51.950;5.902;2022-12-29T14:44:28;5.38;;;0.73;;
38465;SDS011;24244;51.950;5.902;2022-12-29T14:46:55;3.65;;;1.15;;
38465;SDS011;24244;51.950;5.902;2022-12-29T14:49:27;3.85;;;0.68;;
38465;SDS011;24244;51.950;5.902;2022-12-29T14:52:04;2.20;;;0.65;;
38465;SDS011;24244;51.950;5.902;2022-12-29T14:57:28;4.22;;;0.75;;
38465;SDS011;24244;51.950;5.902;2022-12-29T15:00:05;2.30;;;0.50;;
38465;SDS011;24244;51.950;5.902;2022-12-29T15:02:54;4.50;;;0.75;;
38465;SDS011;24244;51.950;5.902;2022-12-29T15:05:32;1.88;;;0.55;;
38465;SDS011;24244;51.950;5.902;2022-12-29T15:08:03;2.38;;;0.55;;
38465;SDS011;24244;51.950;5.902;2022-12-29T15:10:38;2.58;;;0.65;;
38465;SDS011;24244;51.950;5.902;2022-12-29T15:13:14;2.28;;;0.57;;
38465;SDS011;24244;51.950;5.902;2022-12-29T15:15:45;3.83;;;0.60;;
38465;SDS011;24244;51.950;5.902;2022-12-29T15:18:22;3.00;;;0.77;;
38465;SDS011;24244;51.950;5.902;2022-12-29T15:20:57;3.60;;;0.70;;
38465;SDS011;24244;51.950;5.902;2022-12-29T15:23:27;4.60;;;0.93;;
38465;SDS011;24244;51.950;5.902;2022-12-29T15:25:57;4.22;;;0.88;;
38465;SDS011;24244;51.950;5.902;2022-12-29T15:28:26;4.05;;;1.08;;
38465;SDS011;24244;51.950;5.902;2022-12-29T15:31:04;4.15;;;1.10;;
38465;SDS011;24244;51.950;5.902;2022-12-29T15:33:36;3.10;;;0.90;;
38465;SDS011;24244;51.950;5.902;2022-12-29T15:36:09;4.28;;;0.80;;